createdAt,value
2018-09-24T00:01:23.389Z,69.10
2018-09-24T00:03:52.049Z,69.10
2018-09-24T00:06:20.864Z,69.10
2018-09-24T00:08:48.559Z,69.00
2018-09-24T00:11:16.327Z,68.80
2018-09-24T00:13:43.992Z,69.00
2018-09-24T00:16:11.669Z,69.00
2018-09-24T00:18:40.213Z,69.00
2018-09-24T00:21:08.823Z,68.90
2018-09-24T00:23:37.377Z,68.90
2018-09-24T00:26:05.720Z,68.90
2018-09-24T00:28:34.170Z,68.90
2018-09-24T00:31:01.832Z,68.80
2018-09-24T00:33:29.511Z,68.90
2018-09-24T00:35:57.184Z,69.00
2018-09-24T00:38:24.908Z,68.90
2018-09-24T00:40:53.448Z,68.90
2018-09-24T00:43:22.199Z,69.00
2018-09-24T00:45:50.868Z,69.70
2018-09-24T00:48:19.576Z,69.00
2018-09-24T00:50:47.252Z,69.10
2018-09-24T00:53:14.919Z,69.30
2018-09-24T00:55:43.619Z,69.30
2018-09-24T00:58:12.284Z,69.20
2018-09-24T01:00:39.983Z,69.30
2018-09-24T01:03:08.658Z,69.40
2018-09-24T01:05:36.371Z,69.40
2018-09-24T01:08:05.750Z,69.50
2018-09-24T01:10:35.003Z,69.40
2018-09-24T01:13:02.681Z,69.10
2018-09-24T01:15:30.437Z,69.20
2018-09-24T01:17:59.163Z,69.20
2018-09-24T01:20:27.857Z,69.20
2018-09-24T01:22:55.568Z,69.20
2018-09-24T01:25:24.337Z,69.10
2018-09-24T01:27:52.003Z,69.50
2018-09-24T01:30:19.667Z,69.20
2018-09-24T01:32:48.224Z,69.20
2018-09-24T01:35:15.905Z,69.20
2018-09-24T01:37:44.576Z,69.10
2018-09-24T01:40:12.261Z,69.00
2018-09-24T01:42:40.955Z,69.10
2018-09-24T01:45:08.629Z,69.00
2018-09-24T01:47:37.182Z,69.00
2018-09-24T01:50:05.756Z,69.00
2018-09-24T01:52:35.219Z,69.20
2018-09-24T01:55:02.893Z,68.90
2018-09-24T01:57:30.712Z,69.40
2018-09-24T01:59:59.286Z,69.20
2018-09-24T02:02:26.993Z,69.50
2018-09-24T02:04:55.665Z,69.20
2018-09-24T02:07:24.356Z,69.00
2018-09-24T02:09:53.518Z,69.20
2018-09-24T02:12:22.248Z,69.20
2018-09-24T02:14:49.904Z,69.00
2018-09-24T02:17:21.906Z,69.10
2018-09-24T02:19:51.185Z,69.30
2018-09-24T02:22:25.784Z,69.30
2018-09-24T02:24:55.368Z,69.30
2018-09-24T02:27:23.572Z,69.50
2018-09-24T02:29:52.272Z,69.40
2018-09-24T02:32:20.909Z,69.50
2018-09-24T02:34:50.743Z,69.20
2018-09-24T02:37:19.457Z,69.40
2018-09-24T02:39:48.149Z,69.50
2018-09-24T02:42:16.856Z,69.50
2018-09-24T02:44:45.523Z,69.40
2018-09-24T02:47:14.061Z,69.40
2018-09-24T02:49:41.738Z,69.40
2018-09-24T02:52:10.437Z,69.30
2018-09-24T02:54:39.108Z,69.50
2018-09-24T02:57:07.792Z,69.30
2018-09-24T02:59:36.660Z,69.00
2018-09-24T03:02:06.313Z,68.80
2018-09-24T03:04:35.624Z,69.10
2018-09-24T03:07:05.249Z,69.20
2018-09-24T03:09:35.758Z,69.10
2018-09-24T03:12:05.207Z,69.70
2018-09-24T03:14:33.788Z,69.10
2018-09-24T03:17:02.464Z,68.80
2018-09-24T03:19:31.160Z,68.80
2018-09-24T03:21:59.876Z,68.60
2018-09-24T03:24:28.567Z,68.80
2018-09-24T03:26:56.294Z,68.70
2018-09-24T03:29:26.528Z,68.90
2018-09-24T03:31:56.306Z,68.30
2018-09-24T03:34:24.434Z,68.40
2018-09-24T03:36:53.633Z,68.70
2018-09-24T03:39:22.307Z,68.70
2018-09-24T03:41:50.028Z,68.30
2018-09-24T03:44:18.576Z,68.30
2018-09-24T03:46:46.257Z,68.40
2018-09-24T03:49:14.940Z,68.30
2018-09-24T03:51:42.685Z,68.60
2018-09-24T03:54:11.599Z,68.20
2018-09-24T03:56:39.375Z,68.40
2018-09-24T03:59:07.135Z,68.90
2018-09-24T04:01:35.340Z,68.40
2018-09-24T04:04:09.600Z,68.50
2018-09-24T04:06:42.710Z,68.50
2018-09-24T04:09:15.949Z,68.30
2018-09-24T04:11:49.044Z,68.30
2018-09-24T04:14:22.235Z,68.70
2018-09-24T04:16:55.360Z,68.40
2018-09-24T04:19:29.678Z,68.80
2018-09-24T04:22:02.811Z,68.50
2018-09-24T04:24:36.031Z,68.50
2018-09-24T04:27:09.120Z,68.50
2018-09-24T04:29:43.256Z,68.90
2018-09-24T04:32:16.660Z,68.50
2018-09-24T04:34:49.831Z,68.50
2018-09-24T04:37:23.608Z,68.30
2018-09-24T04:39:56.795Z,68.10
2018-09-24T04:42:31.212Z,68.20
2018-09-24T04:45:04.814Z,67.80
2018-09-24T04:47:38.092Z,67.90
2018-09-24T04:50:11.739Z,68.00
2018-09-24T04:52:44.861Z,67.80
2018-09-24T04:55:17.940Z,67.90
2018-09-24T04:57:51.095Z,68.00
2018-09-24T05:00:24.343Z,68.40
2018-09-24T05:02:57.578Z,68.30
2018-09-24T05:05:31.604Z,68.20
2018-09-24T05:08:04.872Z,68.20
2018-09-24T05:10:39.029Z,68.10
2018-09-24T05:13:12.179Z,68.20
2018-09-24T05:15:45.306Z,67.70
2018-09-24T05:18:18.475Z,67.80
2018-09-24T05:20:51.516Z,68.10
2018-09-24T05:23:24.845Z,68.20
2018-09-24T05:25:57.959Z,68.10
2018-09-24T05:28:31.655Z,67.90
2018-09-24T05:31:06.858Z,68.00
2018-09-24T05:33:40.084Z,68.20
2018-09-24T05:36:13.236Z,67.80
2018-09-24T05:38:46.540Z,67.80
2018-09-24T05:41:20.862Z,68.20
2018-09-24T05:43:54.021Z,67.90
2018-09-24T05:46:27.219Z,67.90
2018-09-24T05:49:01.213Z,67.80
2018-09-24T05:51:34.915Z,67.40
2018-09-24T05:54:08.156Z,67.30
2018-09-24T05:56:41.704Z,67.40
2018-09-24T05:59:14.768Z,67.80
2018-09-24T06:01:47.895Z,67.80
2018-09-24T06:04:21.056Z,68.00
2018-09-24T06:06:54.151Z,68.00
2018-09-24T06:09:27.307Z,67.90
2018-09-24T06:12:01.624Z,68.00
2018-09-24T06:14:35.257Z,67.80
2018-09-24T06:17:08.446Z,67.90
2018-09-24T06:19:41.896Z,67.80
2018-09-24T06:22:15.221Z,68.00
2018-09-24T06:24:48.313Z,67.20
2018-09-24T06:27:21.619Z,67.10
2018-09-24T06:29:55.611Z,67.20
2018-09-24T06:32:28.724Z,67.00
2018-09-24T06:35:02.598Z,66.80
2018-09-24T06:37:35.684Z,66.80
2018-09-24T06:40:08.772Z,67.00
2018-09-24T06:42:41.848Z,67.00
2018-09-24T06:45:14.927Z,67.00
2018-09-24T06:47:48.032Z,66.90
2018-09-24T06:50:21.193Z,67.60
2018-09-24T06:52:54.261Z,66.80
2018-09-24T06:55:36.992Z,66.90
2018-09-24T06:58:10.137Z,66.90
2018-09-24T07:00:43.311Z,66.90
2018-09-24T07:03:16.472Z,66.90
2018-09-24T07:05:49.557Z,67.00
2018-09-24T07:08:22.744Z,66.90
2018-09-24T07:10:55.820Z,67.00
2018-09-24T07:13:29.073Z,67.10
2018-09-24T07:16:02.248Z,67.80
2018-09-24T07:18:35.420Z,67.20
2018-09-24T07:21:08.533Z,67.00
2018-09-24T07:23:41.623Z,67.10
2018-09-24T07:26:14.735Z,67.40
2018-09-24T07:28:47.951Z,67.20
2018-09-24T07:31:28.077Z,67.00
2018-09-24T07:34:01.140Z,67.10
2018-09-24T07:36:35.824Z,67.10
2018-09-24T07:39:09.796Z,67.10
2018-09-24T07:41:43.631Z,67.40
2018-09-24T07:44:17.498Z,67.80
2018-09-24T07:46:50.545Z,67.30
2018-09-24T07:49:23.673Z,67.00
2018-09-24T07:51:57.552Z,67.20
2018-09-24T07:54:33.166Z,67.40
2018-09-24T07:57:06.265Z,67.10
2018-09-24T07:59:39.309Z,67.50
2018-09-24T08:02:12.443Z,67.50
2018-09-24T08:04:45.531Z,67.40
2018-09-24T08:07:18.598Z,67.40
2018-09-24T08:09:51.765Z,67.20
2018-09-24T08:12:24.883Z,67.30
2018-09-24T08:14:58.049Z,67.60
2018-09-24T08:17:31.210Z,67.40
2018-09-24T08:20:05.074Z,67.60
2018-09-24T08:22:38.932Z,67.60
2018-09-24T08:25:12.194Z,67.40
2018-09-24T08:27:45.259Z,67.40
2018-09-24T08:30:19.177Z,67.20
2018-09-24T08:32:52.476Z,67.30
2018-09-24T08:35:25.728Z,67.30
2018-09-24T08:37:58.929Z,67.40
2018-09-24T08:40:32.885Z,67.40
2018-09-24T08:43:07.096Z,67.50
2018-09-24T08:45:40.215Z,67.50
2018-09-24T08:48:13.335Z,67.60
2018-09-24T08:50:47.223Z,67.60
2018-09-24T08:53:20.419Z,67.50
2018-09-24T08:55:54.816Z,67.40
2018-09-24T08:58:28.072Z,67.50
2018-09-24T09:01:01.931Z,67.50
2018-09-24T09:03:35.056Z,67.40
2018-09-24T09:06:08.970Z,67.50
2018-09-24T09:08:42.023Z,67.50
2018-09-24T09:11:15.924Z,67.50
2018-09-24T09:13:49.812Z,67.50
2018-09-24T09:16:22.964Z,67.60
2018-09-24T09:18:56.196Z,67.60
2018-09-24T09:21:31.617Z,67.50
2018-09-24T09:24:05.534Z,67.50
2018-09-24T09:26:39.480Z,67.50
2018-09-24T09:29:13.842Z,67.60
2018-09-24T09:31:47.856Z,67.40
2018-09-24T09:34:21.763Z,67.50
2018-09-24T09:36:55.677Z,67.60
2018-09-24T09:39:29.492Z,67.50
2018-09-24T09:42:02.547Z,67.70
2018-09-24T09:44:36.439Z,67.70
2018-09-24T09:47:09.600Z,67.70
2018-09-24T09:49:43.463Z,67.50
2018-09-24T09:52:16.608Z,67.60
2018-09-24T09:54:49.758Z,67.60
2018-09-24T09:57:22.858Z,67.50
2018-09-24T09:59:56.000Z,67.30
2018-09-24T10:02:29.102Z,67.50
2018-09-24T10:05:03.059Z,67.40
2018-09-24T10:07:36.212Z,67.50
2018-09-24T10:10:10.372Z,67.60
2018-09-24T10:12:43.478Z,67.40
2018-09-24T10:15:17.656Z,67.40
2018-09-24T10:17:51.512Z,67.50
2018-09-24T10:20:25.665Z,67.60
2018-09-24T10:22:59.530Z,67.50
2018-09-24T10:25:34.407Z,67.50
2018-09-24T10:28:08.538Z,67.40
2018-09-24T10:30:42.711Z,67.40
2018-09-24T10:33:16.696Z,68.00
2018-09-24T10:35:50.584Z,67.30
2018-09-24T10:38:24.653Z,67.40
2018-09-24T10:40:58.541Z,67.40
2018-09-24T10:43:32.832Z,67.40
2018-09-24T10:46:06.818Z,67.50
2018-09-24T10:48:40.933Z,67.40
2018-09-24T10:51:14.028Z,67.40
2018-09-24T10:53:47.205Z,67.40
2018-09-24T10:56:21.333Z,67.30
2018-09-24T10:58:55.218Z,67.30
2018-09-24T11:01:29.592Z,68.00
2018-09-24T11:04:04.380Z,67.30
2018-09-24T11:06:38.597Z,67.30
2018-09-24T11:09:13.163Z,67.40
2018-09-24T11:11:47.103Z,67.60
2018-09-24T11:14:20.948Z,67.30
2018-09-24T11:16:55.159Z,67.20
2018-09-24T11:19:29.411Z,67.20
2018-09-24T11:22:04.080Z,67.10
2018-09-24T11:24:37.360Z,67.10
2018-09-24T11:27:11.499Z,67.00
2018-09-24T11:29:44.738Z,67.20
2018-09-24T11:32:18.675Z,67.00
2018-09-24T11:34:52.548Z,67.00
2018-09-24T11:37:26.796Z,67.20
2018-09-24T11:40:02.258Z,67.10
2018-09-24T11:42:36.019Z,66.60
2018-09-24T11:45:09.960Z,66.70
2018-09-24T11:47:43.893Z,66.90
2018-09-24T11:50:17.996Z,66.90
2018-09-24T11:52:51.809Z,66.80
2018-09-24T11:55:25.748Z,66.70
2018-09-24T11:57:59.644Z,66.80
2018-09-24T12:00:34.287Z,66.80
2018-09-24T12:03:08.129Z,66.80
2018-09-24T12:05:41.993Z,66.90
2018-09-24T12:08:15.923Z,67.00
2018-09-24T12:10:49.900Z,66.80
2018-09-24T12:13:24.913Z,66.90
2018-09-24T12:15:58.884Z,66.60
2018-09-24T12:18:31.950Z,66.70
2018-09-24T12:21:06.192Z,67.10
2018-09-24T12:23:39.456Z,67.70
2018-09-24T12:26:12.571Z,67.00
2018-09-24T12:28:45.688Z,67.50
2018-09-24T12:31:19.624Z,67.00
2018-09-24T12:33:53.492Z,66.80
2018-09-24T12:36:27.388Z,67.30
2018-09-24T12:39:01.551Z,67.20
2018-09-24T12:41:34.742Z,67.40
2018-09-24T12:44:08.566Z,67.30
2018-09-24T12:46:43.013Z,67.20
2018-09-24T12:49:17.316Z,67.40
2018-09-24T12:51:50.531Z,67.20
2018-09-24T12:54:24.419Z,67.30
2018-09-24T12:56:57.505Z,67.50
2018-09-24T12:59:31.632Z,67.60
2018-09-24T13:02:04.768Z,67.80
2018-09-24T13:04:38.611Z,67.90
2018-09-24T13:07:11.704Z,67.90
2018-09-24T13:09:44.797Z,68.00
2018-09-24T13:12:18.683Z,67.80
2018-09-24T13:14:52.733Z,67.80
2018-09-24T13:17:25.787Z,67.90
2018-09-24T13:19:59.731Z,67.80
2018-09-24T13:22:34.347Z,67.60
2018-09-24T13:25:08.192Z,67.60
2018-09-24T13:27:41.328Z,67.80
2018-09-24T13:30:14.423Z,67.80
2018-09-24T13:32:47.541Z,67.80
2018-09-24T13:35:20.653Z,67.80
2018-09-24T13:37:54.952Z,67.90
2018-09-24T13:40:28.203Z,68.00
2018-09-24T13:43:01.304Z,67.90
2018-09-24T13:45:34.817Z,68.00
2018-09-24T13:48:07.937Z,67.90
2018-09-24T13:50:42.948Z,68.20
2018-09-24T13:53:16.839Z,68.10
2018-09-24T13:55:49.984Z,68.20
2018-09-24T13:58:23.104Z,68.10
2018-09-24T14:00:56.288Z,68.40
2018-09-24T14:03:29.356Z,68.20
2018-09-24T14:06:02.416Z,68.10
2018-09-24T14:08:35.930Z,68.20
2018-09-24T14:11:09.191Z,68.20
2018-09-24T14:13:43.140Z,68.30
2018-09-24T14:16:16.092Z,68.20
2018-09-24T14:18:49.980Z,68.40
2018-09-24T14:21:25.380Z,68.30
2018-09-24T14:23:58.504Z,68.10
2018-09-24T14:26:32.500Z,68.20
2018-09-24T14:29:06.437Z,68.30
2018-09-24T14:31:41.202Z,68.00
2018-09-24T14:34:14.275Z,67.90
2018-09-24T14:36:48.415Z,68.00
2018-09-24T14:39:22.247Z,68.00
2018-09-24T14:41:56.334Z,67.80
2018-09-24T14:44:30.964Z,67.80
2018-09-24T14:47:05.018Z,67.90
2018-09-24T14:49:38.235Z,67.80
2018-09-24T14:52:12.088Z,67.80
2018-09-24T14:54:46.116Z,67.90
2018-09-24T14:57:19.988Z,68.00
2018-09-24T14:59:53.181Z,68.00
2018-09-24T15:02:28.031Z,67.80
2018-09-24T15:05:01.978Z,68.00
2018-09-24T15:07:35.155Z,67.90
2018-09-24T15:10:08.262Z,67.70
2018-09-24T15:12:42.252Z,67.90
2018-09-24T15:15:16.324Z,67.90
2018-09-24T15:17:50.475Z,67.80
2018-09-24T15:20:24.704Z,68.20
2018-09-24T15:22:57.781Z,68.20
2018-09-24T15:25:32.592Z,68.40
2018-09-24T15:28:06.416Z,68.30
2018-09-24T15:30:39.659Z,68.40
2018-09-24T15:33:13.892Z,68.30
2018-09-24T15:35:47.012Z,68.10
2018-09-24T15:38:20.100Z,68.20
2018-09-24T15:40:53.201Z,68.30
2018-09-24T15:43:27.032Z,68.20
2018-09-24T15:46:00.079Z,68.00
2018-09-24T15:48:33.164Z,68.70
2018-09-24T15:51:06.255Z,68.00
2018-09-24T15:53:39.380Z,68.20
2018-09-24T15:56:12.423Z,68.00
2018-09-24T15:58:45.559Z,67.80
2018-09-24T16:01:18.700Z,68.10
2018-09-24T16:03:51.812Z,68.20
2018-09-24T16:06:25.206Z,68.10
2018-09-24T16:08:58.278Z,67.90
2018-09-24T16:11:31.715Z,68.20
2018-09-24T16:14:04.903Z,68.00
2018-09-24T16:16:37.923Z,68.00
2018-09-24T16:19:11.936Z,68.10
2018-09-24T16:21:45.060Z,66.20
2018-09-24T16:24:18.116Z,65.60
2018-09-24T16:26:51.260Z,65.20
2018-09-24T16:29:24.429Z,65.70
2018-09-24T16:31:57.590Z,66.30
2018-09-24T16:34:31.553Z,66.40
2018-09-24T16:37:05.520Z,66.60
2018-09-24T16:39:38.619Z,66.40
2018-09-24T16:42:12.761Z,66.40
2018-09-24T16:44:45.820Z,66.30
2018-09-24T16:47:19.771Z,66.60
2018-09-24T16:49:55.108Z,66.70
2018-09-24T16:52:29.269Z,66.60
2018-09-24T16:55:03.084Z,66.70
2018-09-24T16:57:36.284Z,66.80
2018-09-24T17:00:09.388Z,67.60
2018-09-24T17:02:42.580Z,66.80
2018-09-24T17:05:16.500Z,66.80
2018-09-24T17:07:50.515Z,67.00
2018-09-24T17:10:23.632Z,67.10
2018-09-24T17:12:57.542Z,67.60
2018-09-24T17:15:31.752Z,67.00
2018-09-24T17:18:04.832Z,66.90
2018-09-24T17:20:38.010Z,67.00
2018-09-24T17:23:13.464Z,67.00
2018-09-24T17:25:46.600Z,67.10
2018-09-24T17:28:19.716Z,67.90
2018-09-24T17:30:52.796Z,67.30
2018-09-24T17:33:25.873Z,67.60
2018-09-24T17:35:58.946Z,67.20
2018-09-24T17:38:32.099Z,66.60
2018-09-24T17:41:06.253Z,64.90
2018-09-24T17:43:39.537Z,64.80
2018-09-24T17:46:13.679Z,65.10
2018-09-24T17:48:46.828Z,64.30
2018-09-24T17:51:19.985Z,64.20
2018-09-24T17:53:53.112Z,64.70
2018-09-24T17:56:26.408Z,64.00
2018-09-24T17:58:59.644Z,64.00
2018-09-24T18:01:32.797Z,63.20
2018-09-24T18:04:05.868Z,62.50
2018-09-24T18:06:39.020Z,62.40
2018-09-24T18:09:13.081Z,62.70
2018-09-24T18:11:46.211Z,62.80
2018-09-24T18:14:19.288Z,62.70
2018-09-24T18:16:52.456Z,61.90
2018-09-24T18:19:25.516Z,62.10
2018-09-24T18:22:00.582Z,62.30
2018-09-24T18:24:34.750Z,61.60
2018-09-24T18:27:08.724Z,61.20
2018-09-24T18:29:42.903Z,61.40
2018-09-24T18:32:16.108Z,61.50
2018-09-24T18:34:50.339Z,61.70
2018-09-24T18:37:24.964Z,61.50
2018-09-24T18:39:59.100Z,61.90
2018-09-24T18:42:32.220Z,62.40
2018-09-24T18:45:06.143Z,63.00
2018-09-24T18:47:41.310Z,63.20
2018-09-24T18:50:15.240Z,63.40
2018-09-24T18:52:48.565Z,63.40
2018-09-24T18:55:21.782Z,63.30
2018-09-24T18:57:54.907Z,63.50
2018-09-24T19:00:28.028Z,63.50
2018-09-24T19:03:02.564Z,64.20
2018-09-24T19:05:35.819Z,63.90
2018-09-24T19:08:09.720Z,63.70
2018-09-24T19:10:42.856Z,64.10
2018-09-24T19:13:16.788Z,64.90
2018-09-24T19:15:50.819Z,64.10
2018-09-24T19:18:24.741Z,64.10
2018-09-24T19:20:58.672Z,64.50
2018-09-24T19:23:31.889Z,64.90
2018-09-24T19:26:05.751Z,64.90
2018-09-24T19:28:38.947Z,64.90
2018-09-24T19:31:12.841Z,64.70
2018-09-24T19:33:46.755Z,64.90
2018-09-24T19:36:20.571Z,65.10
2018-09-24T19:38:54.812Z,65.20
2018-09-24T19:41:28.681Z,65.20
2018-09-24T19:44:01.813Z,65.10
2018-09-24T19:46:35.875Z,65.10
2018-09-24T19:49:10.148Z,65.20
2018-09-24T19:51:44.153Z,65.00
2018-09-24T19:54:18.057Z,65.20
2018-09-24T19:56:51.916Z,65.20
2018-09-24T19:59:25.941Z,65.20
2018-09-24T20:01:59.167Z,65.30
2018-09-24T20:04:32.996Z,65.20
2018-09-24T20:07:06.128Z,65.00
2018-09-24T20:09:39.274Z,65.00
2018-09-24T20:12:13.501Z,65.00
2018-09-24T20:14:47.388Z,65.00
2018-09-24T20:17:21.393Z,65.00
2018-09-24T20:19:55.271Z,65.80
2018-09-24T20:22:29.251Z,65.20
2018-09-24T20:25:04.393Z,65.20
2018-09-24T20:27:38.883Z,65.40
2018-09-24T20:30:12.156Z,65.30
2018-09-24T20:32:46.520Z,65.00
2018-09-24T20:35:19.692Z,65.20
2018-09-24T20:37:52.801Z,65.60
2018-09-24T20:40:26.932Z,65.10
2018-09-24T20:43:01.164Z,65.00
2018-09-24T20:45:35.100Z,65.10
2018-09-24T20:48:09.357Z,65.40
2018-09-24T20:50:42.523Z,65.00
2018-09-24T20:53:16.645Z,65.10
2018-09-24T20:55:50.497Z,65.30
2018-09-24T20:58:24.178Z,65.20
2018-09-24T21:00:57.448Z,65.20
2018-09-24T21:03:31.436Z,65.00
2018-09-24T21:06:05.603Z,64.50
2018-09-24T21:08:38.967Z,65.10
2018-09-24T21:11:12.139Z,65.10
2018-09-24T21:13:45.108Z,65.10
2018-09-24T21:16:19.039Z,65.10
2018-09-24T21:18:52.891Z,64.90
2018-09-24T21:21:26.723Z,65.00
2018-09-24T21:24:02.191Z,65.10
2018-09-24T21:26:36.124Z,65.00
2018-09-24T21:29:09.419Z,64.90
2018-09-24T21:31:43.308Z,64.90
2018-09-24T21:34:16.416Z,65.00
2018-09-24T21:36:49.866Z,64.80
2018-09-24T21:39:23.280Z,65.00
2018-09-24T21:41:57.227Z,65.10
2018-09-24T21:44:30.409Z,64.90
2018-09-24T21:47:04.442Z,65.60
2018-09-24T21:49:37.528Z,64.90
2018-09-24T21:52:11.265Z,65.00
2018-09-24T21:54:44.396Z,65.10
2018-09-24T21:57:18.269Z,64.90
2018-09-24T21:59:52.383Z,64.90
2018-09-24T22:02:26.359Z,65.10
2018-09-24T22:04:59.539Z,64.90
2018-09-24T22:07:34.936Z,64.70
2018-09-24T22:10:08.944Z,64.90
2018-09-24T22:12:43.424Z,64.70
2018-09-24T22:15:17.288Z,64.70
2018-09-24T22:17:51.508Z,64.90
2018-09-24T22:20:25.371Z,64.80
2018-09-24T22:22:59.516Z,65.50
2018-09-24T22:25:35.045Z,64.70
2018-09-24T22:28:08.996Z,64.50
2018-09-24T22:30:42.931Z,64.80
2018-09-24T22:33:16.780Z,64.90
2018-09-24T22:35:50.712Z,64.90
2018-09-24T22:38:24.652Z,64.90
2018-09-24T22:40:57.804Z,64.50
2018-09-24T22:43:31.871Z,64.70
2018-09-24T22:46:06.032Z,64.70
2018-09-24T22:48:39.968Z,64.70
2018-09-24T22:51:14.080Z,64.80
2018-09-24T22:53:47.875Z,64.70
2018-09-24T22:56:21.783Z,64.90
2018-09-24T22:58:54.959Z,64.50
2018-09-24T23:01:28.229Z,64.70
2018-09-24T23:04:01.672Z,64.50
2018-09-24T23:06:34.931Z,64.70
2018-09-24T23:09:08.001Z,65.10
2018-09-24T23:11:41.743Z,64.60
2018-09-24T23:14:14.812Z,64.50
2018-09-24T23:16:47.976Z,64.60
2018-09-24T23:19:21.092Z,64.50
2018-09-24T23:21:54.245Z,64.50
2018-09-24T23:24:27.343Z,65.10
2018-09-24T23:27:00.459Z,64.80
2018-09-24T23:29:34.623Z,64.50
2018-09-24T23:32:07.732Z,64.30
2018-09-24T23:34:41.621Z,64.50
2018-09-24T23:37:14.779Z,64.50
2018-09-24T23:39:47.868Z,64.60
2018-09-24T23:42:20.987Z,64.80
2018-09-24T23:44:55.257Z,64.50
2018-09-24T23:47:28.492Z,64.50
2018-09-24T23:50:01.581Z,64.70
2018-09-24T23:52:34.692Z,64.70
2018-09-24T23:55:07.718Z,64.70
2018-09-24T23:57:41.433Z,64.50
